Time;durP1;ratioP1;P1;durP2;ratioP2;P2;SDS_P1;SDS_P2;PMS_P1;PMS_P2;Temp;Humidity;BMP_temperature;BMP_pressure;BME280_temperature;BME280_humidity;BME280_pressure;Samples;Min_cycle;Max_cycle;Signal;HPM_P1;HPM_P2
2024/01/22 00:01:56;;;;;;;4.20;1.87;;;;;;;3.34;100.00;100970.50;4924825;29;20669;-76
2024/01/22 00:04:21;;;;;;;3.33;1.90;;;;;;;3.34;100.00;100961.16;4915040;29;20198;-77
2024/01/22 00:06:47;;;;;;;2.70;2.27;;;;;;;3.28;100.00;100950.72;4929247;29;20222;-78
2024/01/22 00:09:12;;;;;;;3.77;2.13;;;;;;;3.26;100.00;100946.38;4924506;29;20218;-76
2024/01/22 00:11:37;;;;;;;2.53;2.17;;;;;;;3.24;100.00;100940.34;4926660;29;20192;-77
2024/01/22 00:14:03;;;;;;;2.27;1.93;;;;;;;3.22;100.00;100940.31;4925726;29;20212;-77
2024/01/22 00:16:28;;;;;;;2.10;1.77;;;;;;;3.22;100.00;100940.31;4926358;29;20709;-78
2024/01/22 00:18:53;;;;;;;3.13;1.73;;;;;;;3.20;100.00;100932.56;4928425;29;20199;-76
2024/01/22 00:21:19;;;;;;;1.73;1.63;;;;;;;3.19;100.00;100932.53;4925513;29;20219;-77
2024/01/22 00:23:45;;;;;;;1.97;1.60;;;;;;;3.18;100.00;100938.47;4927544;29;20242;-76
2024/01/22 00:26:14;;;;;;;2.00;1.73;;;;;;;3.13;100.00;100933.22;4906415;29;20294;-76
2024/01/22 00:28:41;;;;;;;2.50;2.10;;;;;;;3.07;100.00;100927.03;4910335;29;20649;-77
2024/01/22 00:31:06;;;;;;;2.00;1.70;;;;;;;3.02;100.00;100925.19;4929888;29;20188;-77
2024/01/22 00:33:31;;;;;;;3.33;2.43;;;;;;;2.99;100.00;100922.53;4926998;29;20229;-78
2024/01/22 00:35:57;;;;;;;2.60;1.70;;;;;;;2.97;100.00;100898.59;4927526;29;20685;-77
2024/01/22 00:38:22;;;;;;;2.67;2.20;;;;;;;2.96;100.00;100896.00;4926147;29;20226;-76
2024/01/22 00:40:47;;;;;;;2.80;2.50;;;;;;;2.92;100.00;100897.59;4924038;29;20210;-77
2024/01/22 00:43:12;;;;;;;2.30;2.10;;;;;;;2.92;100.00;100887.38;4926944;29;20629;-76
2024/01/22 00:45:38;;;;;;;2.30;2.07;;;;;;;2.92;100.00;100901.81;4928896;29;20184;-77
2024/01/22 00:48:04;;;;;;;2.77;2.20;;;;;;;2.87;100.00;100894.88;4925522;29;20206;-76
2024/01/22 00:50:29;;;;;;;8.10;5.13;;;;;;;2.86;100.00;100898.28;4927436;29;20690;-76
2024/01/22 00:52:54;;;;;;;7.07;4.87;;;;;;;2.89;100.00;100902.59;4928865;29;20198;-76
2024/01/22 00:55:20;;;;;;;5.07;3.97;;;;;;;2.91;100.00;100900.97;4929166;29;20199;-76
2024/01/22 00:57:45;;;;;;;6.03;4.00;;;;;;;2.91;100.00;100900.97;4931929;29;20211;-76
2024/01/22 01:00:11;;;;;;;7.20;4.93;;;;;;;2.91;100.00;100906.09;4934878;29;20240;-77
2024/01/22 01:02:36;;;;;;;7.43;4.40;;;;;;;2.93;100.00;100896.78;4927743;29;20199;-77
2024/01/22 01:05:02;;;;;;;7.57;4.47;;;;;;;2.92;100.00;100886.50;4927424;29;20195;-76
2024/01/22 01:07:27;;;;;;;7.10;5.10;;;;;;;2.86;100.00;100888.06;4921926;29;20247;-76
2024/01/22 01:09:53;;;;;;;5.67;4.67;;;;;;;2.91;100.00;100885.63;4909821;29;20319;-77
2024/01/22 01:12:19;;;;;;;13.90;8.50;;;;;;;2.92;100.00;100889.94;4925864;29;20935;-78
2024/01/22 01:14:44;;;;;;;10.87;7.57;;;;;;;2.95;100.00;100882.31;4927149;29;20196;-76
2024/01/22 01:17:09;;;;;;;11.83;7.87;;;;;;;2.95;100.00;100884.88;4926841;29;20720;-76
2024/01/22 01:19:35;;;;;;;12.03;6.87;;;;;;;3.01;100.00;100879.97;4926863;29;20282;-76
2024/01/22 01:22:01;;;;;;;8.20;5.70;;;;;;;2.99;100.00;100889.28;4929532;29;20191;-78
2024/01/22 01:24:26;;;;;;;7.70;5.23;;;;;;;3.04;100.00;100887.75;4925212;29;20200;-77
2024/01/22 01:26:51;;;;;;;6.80;5.00;;;;;;;3.09;100.00;100875.09;4923704;29;20211;-78
2024/01/22 01:29:17;;;;;;;13.33;8.20;;;;;;;3.10;100.00;100881.09;4926850;29;20192;-77
2024/01/22 01:31:42;;;;;;;16.67;10.67;;;;;;;3.11;100.00;100880.25;4908449;29;20566;-77
2024/01/22 01:34:08;;;;;;;14.80;10.00;;;;;;;3.12;100.00;100879.44;4926883;29;20247;-77
2024/01/22 01:36:33;;;;;;;13.47;10.50;;;;;;;3.13;100.00;100874.38;4913274;29;20227;-77
2024/01/22 01:38:58;;;;;;;14.23;9.80;;;;;;;3.16;100.00;100879.59;4908615;29;20191;-77
2024/01/22 01:41:23;;;;;;;8.90;7.40;;;;;;;3.15;100.00;100888.09;4928046;29;20202;-77
2024/01/22 01:43:49;;;;;;;8.87;7.00;;;;;;;3.15;100.00;100892.31;4926187;29;20700;-76
2024/01/22 01:46:14;;;;;;;6.13;5.30;;;;;;;3.13;100.00;100889.72;4926081;29;20211;-77
2024/01/22 01:48:40;;;;;;;5.67;4.03;;;;;;;3.10;100.00;100891.34;4926717;29;20274;-77
2024/01/22 01:51:06;;;;;;;5.90;4.43;;;;;;;3.07;100.00;100889.53;4908678;29;20202;-77
2024/01/22 01:53:32;;;;;;;5.47;4.60;;;;;;;3.04;100.00;100886.88;4921894;29;20192;-77
2024/01/22 01:55:59;;;;;;;6.50;3.70;;;;;;;3.01;100.00;100879.97;4927355;29;20278;-77
2024/01/22 01:58:24;;;;;;;4.33;3.50;;;;;;;3.02;100.00;100880.88;4910676;29;20227;-77
2024/01/22 02:00:53;;;;;;;4.63;3.50;;;;;;;3.01;100.00;100879.13;4927737;29;20207;-78
2024/01/22 02:03:18;;;;;;;5.00;3.90;;;;;;;2.98;100.00;100879.03;4926960;29;20206;-76
2024/01/22 02:05:47;;;;;;;7.83;5.97;;;;;;;2.95;100.00;100881.47;4921107;29;20197;-78
2024/01/22 02:08:12;;;;;;;6.63;5.03;;;;;;;2.95;100.00;100878.91;4920396;29;20207;-77
2024/01/22 02:10:37;;;;;;;10.43;7.17;;;;;;;2.90;100.00;100881.34;4928487;29;20187;-76
2024/01/22 02:13:06;;;;;;;7.40;5.63;;;;;;;2.85;100.00;100872.63;4925784;29;20199;-77
2024/01/22 02:15:32;;;;;;;5.87;3.93;;;;;;;2.79;100.00;100873.31;4923649;29;20215;-76
2024/01/22 02:18:04;;;;;;;8.07;4.30;;;;;;;2.81;100.00;100865.69;4924400;29;20238;-78
2024/01/22 02:20:30;;;;;;;4.90;3.53;;;;;;;2.83;100.00;100856.38;4926127;29;20200;-78
2024/01/22 02:23:04;;;;;;;4.73;3.03;;;;;;;2.78;100.00;100858.78;4927561;29;20752;-78
2024/01/22 02:25:29;;;;;;;4.33;2.80;;;;;;;2.80;100.00;100849.50;4926273;29;20195;-77
2024/01/22 02:27:54;;;;;;;3.00;2.60;;;;;;;2.79;100.00;100850.31;4927429;29;20215;-76
2024/01/22 02:30:20;;;;;;;2.57;2.30;;;;;;;2.79;100.00;100855.41;4928405;29;20933;-77
2024/01/22 02:32:45;;;;;;;3.60;2.40;;;;;;;2.81;100.00;100845.22;4926630;29;20221;-77
2024/01/22 02:35:10;;;;;;;3.67;2.47;;;;;;;2.80;100.00;100839.28;4921162;29;20199;-77
2024/01/22 02:37:38;;;;;;;4.60;2.20;;;;;;;2.80;100.00;100815.41;4921246;29;20322;-77
2024/01/22 02:40:04;;;;;;;4.30;2.27;;;;;;;2.76;100.00;100809.31;4911282;29;20199;-77
2024/01/22 02:42:29;;;;;;;4.03;2.13;;;;;;;2.78;100.00;100805.13;4930082;29;20195;-77
2024/01/22 02:44:54;;;;;;;3.47;1.87;;;;;;;2.80;100.00;100806.03;4927262;29;20183;-76
2024/01/22 02:47:19;;;;;;;4.37;2.20;;;;;;;2.80;100.00;100805.19;4926648;29;20203;-76
2024/01/22 02:49:45;;;;;;;3.07;2.23;;;;;;;2.83;100.00;100788.25;4929677;29;20198;-77
2024/01/22 02:52:10;;;;;;;4.93;2.57;;;;;;;2.89;100.00;100779.91;4933061;29;20262;-77
2024/01/22 02:54:36;;;;;;;2.63;2.17;;;;;;;2.91;100.00;100778.25;4912287;29;20191;-76
2024/01/22 02:57:01;;;;;;;2.63;2.10;;;;;;;2.91;100.00;100770.59;4931121;29;20839;-77
2024/01/22 02:59:26;;;;;;;3.07;2.37;;;;;;;2.94;100.00;100775.78;4930991;29;20676;-76
2024/01/22 03:01:52;;;;;;;4.07;2.40;;;;;;;2.98;100.00;100772.50;4930076;29;20200;-76
2024/01/22 03:04:17;;;;;;;3.27;2.40;;;;;;;3.00;100.00;100757.22;4934996;29;20191;-76
2024/01/22 03:06:42;;;;;;;2.43;2.23;;;;;;;3.08;100.00;100747.22;4926167;29;20277;-77
2024/01/22 03:09:09;;;;;;;2.80;1.90;;;;;;;3.07;100.00;100746.31;4932182;29;20658;-77
2024/01/22 03:11:34;;;;;;;4.33;2.63;;;;;;;3.13;100.00;100749.06;4929953;29;20242;-76
2024/01/22 03:14:00;;;;;;;3.97;2.47;;;;;;;3.16;100.00;100746.59;4927874;29;20185;-78
2024/01/22 03:16:26;;;;;;;3.50;2.40;;;;;;;3.22;100.00;100738.25;4912600;29;20298;-77
2024/01/22 03:18:52;;;;;;;4.43;2.33;;;;;;;3.25;100.00;100720.44;4929675;29;20248;-77
2024/01/22 03:21:17;;;;;;;2.50;2.07;;;;;;;3.29;100.00;100721.38;4931110;29;20677;-76
2024/01/22 03:23:45;;;;;;;2.13;1.93;;;;;;;3.38;100.00;100721.59;4928680;29;20278;-77
2024/01/22 03:26:19;;;;;;;3.70;2.50;;;;;;;3.35;100.00;100724.97;4926106;29;20204;-77
2024/01/22 03:28:44;;;;;;;3.27;2.00;;;;;;;3.39;100.00;100725.91;4928550;29;20274;-76
2024/01/22 03:31:29;;;;;;;2.63;2.10;;;;;;;3.40;100.00;100726.78;4915826;29;20274;-77
2024/01/22 03:33:56;;;;;;;2.40;2.20;;;;;;;3.43;100.00;100727.72;4930560;29;20220;-76
2024/01/22 03:36:22;;;;;;;2.93;1.97;;;;;;;3.46;100.00;100711.59;4931263;29;20219;-77
2024/01/22 03:38:48;;;;;;;2.27;1.70;;;;;;;3.52;100.00;100709.19;4929787;29;20615;-76
2024/01/22 03:41:13;;;;;;;3.23;2.07;;;;;;;3.52;100.00;100701.53;4927747;29;20274;-77
2024/01/22 03:43:43;;;;;;;3.03;1.83;;;;;;;3.59;100.00;100705.97;4929356;29;20185;-76
2024/01/22 03:46:09;;;;;;;2.57;1.90;;;;;;;3.62;100.00;100700.94;4932242;29;20208;-77
2024/01/22 03:48:34;;;;;;;2.63;1.57;;;;;;;3.68;100.00;100700.22;4914585;29;20242;-76
2024/01/22 03:51:00;;;;;;;3.00;1.90;;;;;;;3.72;100.00;100709.72;4916714;29;20970;-77
2024/01/22 03:53:25;;;;;;;1.80;1.60;;;;;;;3.75;100.00;100707.25;4925163;29;20262;-76
2024/01/22 03:55:50;;;;;;;2.03;1.83;;;;;;;3.82;100.00;100718.50;4930680;29;20233;-77
2024/01/22 03:58:16;;;;;;;2.13;1.83;;;;;;;3.87;100.00;100711.78;4932750;29;20226;-76
2024/01/22 04:00:41;;;;;;;2.43;1.90;;;;;;;3.89;100.00;100699.03;4928434;29;20232;-76
2024/01/22 04:03:08;;;;;;;2.50;1.70;;;;;;;3.95;100.00;100706.88;4929262;29;20275;-76
2024/01/22 04:05:33;;;;;;;3.03;1.67;;;;;;;4.00;100.00;100707.00;4933306;29;20198;-77
2024/01/22 04:07:58;;;;;;;2.40;1.80;;;;;;;4.04;100.00;100696.88;4928779;29;20212;-77
2024/01/22 04:10:25;;;;;;;2.30;1.70;;;;;;;4.10;100.00;100698.69;4931945;29;20207;-76
2024/01/22 04:12:51;;;;;;;3.10;1.87;;;;;;;4.11;100.00;100690.19;4930982;29;20189;-77
2024/01/22 04:15:16;;;;;;;2.63;1.87;;;;;;;4.17;100.00;100698.00;4931017;29;20188;-76
2024/01/22 04:17:42;;;;;;;2.53;1.80;;;;;;;4.18;100.00;100691.19;4934573;29;20329;-76
2024/01/22 04:20:08;;;;;;;2.07;1.70;;;;;;;4.17;100.00;100684.34;4940450;29;20204;-77
2024/01/22 04:22:33;;;;;;;1.80;1.63;;;;;;;4.29;100.00;100692.31;4928998;29;20535;-77
2024/01/22 04:24:59;;;;;;;1.80;1.40;;;;;;;4.29;100.00;100700.00;4924426;29;20194;-77
2024/01/22 04:27:24;;;;;;;2.13;1.50;;;;;;;4.38;100.00;100700.22;4928373;29;20338;-76
2024/01/22 04:29:49;;;;;;;2.17;1.20;;;;;;;4.38;100.00;100696.78;4924808;29;20198;-77
2024/01/22 04:32:14;;;;;;;1.10;1.00;;;;;;;4.43;100.00;100687.53;4930208;29;20193;-77
2024/01/22 04:34:41;;;;;;;2.27;1.20;;;;;;;4.50;100.00;100691.94;4909607;29;20248;-78
2024/01/22 04:37:06;;;;;;;2.23;1.20;;;;;;;4.55;100.00;100684.34;4929913;29;20304;-76
2024/01/22 04:39:32;;;;;;;3.23;1.20;;;;;;;4.53;100.00;100679.19;4929632;29;20282;-76
2024/01/22 04:41:57;;;;;;;2.80;1.23;;;;;;;4.59;100.00;100683.59;4927848;29;20259;-77
2024/01/22 04:44:23;;;;;;;1.70;1.00;;;;;;;4.64;100.00;100666.63;4929043;29;20668;-78
2024/01/22 04:46:48;;;;;;;1.30;1.20;;;;;;;4.71;100.00;100672.75;4929121;29;20207;-77
2024/01/22 04:49:14;;;;;;;1.43;1.20;;;;;;;4.77;100.00;100662.59;4930273;29;20210;-77
2024/01/22 04:51:42;;;;;;;2.10;1.20;;;;;;;4.76;100.00;100658.31;4917097;29;20218;-76
2024/01/22 04:54:10;;;;;;;2.13;1.10;;;;;;;4.84;100.00;100668.75;4928103;29;20188;-77
2024/01/22 04:56:44;;;;;;;2.00;1.47;;;;;;;4.90;100.00;100668.84;4929057;29;20226;-76
2024/01/22 04:59:09;;;;;;;2.00;1.20;;;;;;;4.95;100.00;100671.50;4923788;29;20195;-76
2024/01/22 05:01:35;;;;;;;1.40;1.00;;;;;;;4.99;100.00;100663.91;4917340;29;20752;-76
2024/01/22 05:04:01;;;;;;;1.90;1.50;;;;;;;5.07;100.00;100658.91;4914732;29;20203;-77
2024/01/22 05:06:26;;;;;;;1.30;1.20;;;;;;;5.11;100.00;100647.03;4928915;29;20275;-77
2024/01/22 05:08:51;;;;;;;2.37;1.30;;;;;;;5.10;100.00;100645.31;4931357;29;20248;-77
2024/01/22 05:11:17;;;;;;;2.53;1.53;;;;;;;5.07;100.00;100640.97;4929053;29;20199;-76
2024/01/22 05:13:53;;;;;;;1.23;1.00;;;;;;;5.02;100.00;100633.19;4929538;29;20628;-78
2024/01/22 05:16:19;;;;;;;2.20;1.33;;;;;;;5.05;100.00;100622.13;4930378;29;20303;-76
2024/01/22 05:18:46;;;;;;;2.23;0.93;;;;;;;5.11;100.00;100603.41;4929252;29;20571;-77
2024/01/22 05:21:11;;;;;;;1.80;1.10;;;;;;;5.08;100.00;100595.66;4924533;29;20201;-77
2024/01/22 05:23:38;;;;;;;2.57;1.30;;;;;;;5.15;100.00;100597.50;4930456;29;20196;-76
2024/01/22 05:26:03;;;;;;;1.40;1.10;;;;;;;5.18;100.00;100603.56;4929833;29;20189;-77
2024/01/22 05:28:29;;;;;;;1.27;1.13;;;;;;;5.18;100.00;100601.00;4929596;29;20204;-77
2024/01/22 05:30:54;;;;;;;1.60;1.10;;;;;;;5.22;100.00;100601.06;4929932;29;20195;-77
2024/01/22 05:33:19;;;;;;;1.67;1.13;;;;;;;5.23;100.00;100593.38;4929470;29;20204;-77
2024/01/22 05:35:45;;;;;;;1.40;1.10;;;;;;;5.28;100.00;100585.75;4927226;29;20299;-77
2024/01/22 05:38:10;;;;;;;1.50;1.17;;;;;;;5.32;100.00;100579.84;4917977;29;20220;-77
2024/01/22 05:40:35;;;;;;;3.23;1.07;;;;;;;5.36;100.00;100570.50;4929797;29;20246;-77
2024/01/22 05:43:01;;;;;;;2.33;1.10;;;;;;;5.37;100.00;100567.94;4929700;29;20293;-77
2024/01/22 05:45:26;;;;;;;2.03;1.27;;;;;;;5.45;100.00;100575.75;4925882;29;20232;-76
2024/01/22 05:47:51;;;;;;;1.37;1.20;;;;;;;5.47;100.00;100574.09;4928553;29;20227;-76
2024/01/22 05:50:17;;;;;;;2.17;1.27;;;;;;;5.55;100.00;100569.97;4930805;29;20292;-77
2024/01/22 05:52:42;;;;;;;2.43;1.23;;;;;;;5.53;100.00;100566.50;4927674;29;20264;-77
2024/01/22 05:55:08;;;;;;;3.40;1.43;;;;;;;5.54;100.00;100570.81;4929217;29;20722;-77
2024/01/22 05:57:33;;;;;;;1.30;0.90;;;;;;;5.66;100.00;100559.88;4925000;29;20226;-77
2024/01/22 05:59:59;;;;;;;2.20;1.00;;;;;;;5.65;100.00;100561.56;4931259;29;20214;-76
2024/01/22 06:02:25;;;;;;;3.33;1.60;;;;;;;5.77;100.00;100558.31;4931085;29;20204;-76
2024/01/22 06:04:50;;;;;;;1.50;1.27;;;;;;;5.73;100.00;100548.84;4925785;29;20196;-77
2024/01/22 06:07:16;;;;;;;1.73;1.03;;;;;;;5.76;100.00;100528.34;4916694;29;20663;-77
2024/01/22 06:09:42;;;;;;;3.43;1.53;;;;;;;5.79;100.00;100536.09;4910434;29;20812;-76
2024/01/22 06:12:07;;;;;;;1.73;1.50;;;;;;;5.80;100.00;100519.84;4924900;29;20202;-76
2024/01/22 06:14:32;;;;;;;2.97;1.10;;;;;;;5.83;100.00;100519.03;4927727;29;20285;-76
2024/01/22 06:16:57;;;;;;;2.03;1.23;;;;;;;5.86;100.00;100502.78;4930961;29;20229;-77
2024/01/22 06:19:23;;;;;;;2.07;1.03;;;;;;;5.92;100.00;100492.59;4932021;29;20289;-77
2024/01/22 06:21:48;;;;;;;2.10;1.27;;;;;;;5.97;100.00;100490.97;4932999;29;20191;-76
2024/01/22 06:24:15;;;;;;;3.10;1.30;;;;;;;6.00;100.00;100491.00;4932301;29;20258;-77
2024/01/22 06:26:41;;;;;;;4.07;1.43;;;;;;;6.10;100.00;100492.00;4933197;29;20212;-76
2024/01/22 06:29:13;;;;;;;5.83;1.20;;;;;;;6.20;100.00;100480.97;4930591;29;20213;-76
2024/01/22 06:31:39;;;;;;;2.33;1.50;;;;;;;6.30;100.00;100489.66;4930777;29;20201;-76
2024/01/22 06:34:04;;;;;;;4.03;1.40;;;;;;;6.44;100.00;100471.84;4931194;29;20194;-78
2024/01/22 06:36:30;;;;;;;1.87;0.97;;;;;;;6.63;100.00;100478.03;4931429;29;20230;-76
2024/01/22 06:38:55;;;;;;;2.23;1.10;;;;;;;6.72;100.00;100477.28;4931321;29;20194;-76
2024/01/22 06:41:22;;;;;;;3.87;1.27;;;;;;;6.80;100.00;100480.78;4926480;29;20237;-76
2024/01/22 06:43:47;;;;;;;3.97;1.17;;;;;;;6.86;100.00;100465.41;4931010;29;20277;-77
2024/01/22 06:46:13;;;;;;;2.33;1.13;;;;;;;6.96;100.00;100465.47;4928070;29;20292;-77
2024/01/22 06:48:38;;;;;;;3.73;1.07;;;;;;;7.04;100.00;100473.25;4933931;29;20278;-77
2024/01/22 06:51:04;;;;;;;1.60;0.87;;;;;;;7.14;100.00;100468.19;4915301;29;20281;-76
2024/01/22 06:53:29;;;;;;;3.10;1.23;;;;;;;7.12;100.00;100461.34;4927408;29;20192;-77
2024/01/22 06:55:54;;;;;;;2.57;1.37;;;;;;;7.19;100.00;100470.81;4926575;29;20221;-76
2024/01/22 06:58:20;;;;;;;1.97;1.20;;;;;;;7.21;100.00;100463.13;4919070;29;20201;-76
2024/01/22 07:00:45;;;;;;;4.37;1.57;;;;;;;7.26;100.00;100449.44;4932098;29;20191;-76
2024/01/22 07:03:12;;;;;;;1.33;0.90;;;;;;;7.31;100.00;100445.19;4932452;29;20206;-77
2024/01/22 07:05:37;;;;;;;2.47;1.00;;;;;;;7.37;100.00;100444.34;4930699;29;20247;-76
2024/01/22 07:08:04;;;;;;;4.30;1.00;;;;;;;7.39;100.00;100432.38;4932306;29;20789;-78
2024/01/22 07:10:30;;;;;;;1.70;0.97;;;;;;;7.42;100.00;100437.50;4929500;29;20215;-76
2024/01/22 07:12:56;;;;;;;1.27;0.97;;;;;;;7.50;100.00;100429.81;4930289;29;20206;-76
2024/01/22 07:15:22;;;;;;;1.83;1.23;;;;;;;7.61;100.00;100432.47;4914357;29;20640;-76
2024/01/22 07:17:50;;;;;;;2.23;1.00;;;;;;;7.60;100.00;100421.31;4934927;29;20239;-77
2024/01/22 07:20:15;;;;;;;2.37;1.20;;;;;;;7.67;100.00;100409.34;4917605;29;20192;-77
2024/01/22 07:22:45;;;;;;;3.30;1.30;;;;;;;7.71;100.00;100407.63;4926826;29;20200;-78
2024/01/22 07:25:10;;;;;;;2.80;0.90;;;;;;;7.82;100.00;100392.22;4932882;29;20526;-76
2024/01/22 07:27:39;;;;;;;1.80;0.80;;;;;;;7.93;100.00;100404.31;4932342;28;20958;-76
2024/01/22 07:30:11;;;;;;;1.43;0.97;;;;;;;7.99;100.00;100400.00;4936047;29;20290;-77
2024/01/22 07:32:37;;;;;;;3.13;1.10;;;;;;;8.08;100.00;100394.91;4934579;29;21027;-76
2024/01/22 07:35:10;;;;;;;1.77;1.20;;;;;;;8.09;100.00;100389.75;4934107;29;20666;-75
2024/01/22 07:37:44;;;;;;;2.00;0.97;;;;;;;8.15;100.00;100391.47;4915749;29;20238;-76
2024/01/22 07:40:10;;;;;;;1.80;1.07;;;;;;;8.22;100.00;100400.94;4910549;29;20198;-78
2024/01/22 07:42:37;;;;;;;1.20;1.00;;;;;;;8.26;100.00;100393.19;4929728;29;20587;-77
2024/01/22 07:45:03;;;;;;;1.40;1.00;;;;;;;8.34;100.00;100396.69;4923676;29;20202;-76
2024/01/22 07:47:29;;;;;;;1.67;1.00;;;;;;;8.41;100.00;100400.13;4926792;29;20203;-76
2024/01/22 07:49:55;;;;;;;1.17;0.87;;;;;;;8.45;100.00;100405.28;4917310;29;20566;-76
2024/01/22 07:52:21;;;;;;;1.60;1.10;;;;;;;8.48;100.00;100395.00;4912477;29;20187;-76
2024/01/22 07:54:47;;;;;;;1.97;1.33;;;;;;;8.50;100.00;100389.84;4928496;29;20187;-77
2024/01/22 07:57:12;;;;;;;2.57;1.30;;;;;;;8.49;100.00;100394.16;4929971;29;20291;-78
2024/01/22 07:59:38;;;;;;;2.13;1.43;;;;;;;8.52;100.00;100390.72;4928616;29;20645;-78
2024/01/22 08:02:04;;;;;;;1.87;1.30;;;;;;;8.55;100.00;100385.56;4924076;29;20677;-76
2024/01/22 08:04:30;;;;;;;1.70;1.40;;;;;;;8.67;100.00;100389.88;4923476;29;20195;-76
2024/01/22 08:06:56;;;;;;;1.10;0.97;;;;;;;8.70;100.00;100369.22;4929920;29;20297;-77
2024/01/22 08:09:22;;;;;;;0.97;0.70;;;;;;;8.88;100.00;100376.09;4928760;29;20969;-78
2024/01/22 08:11:47;;;;;;;1.87;0.90;;;;;;;8.95;100.00;100379.53;4931325;29;20658;-76
2024/01/22 08:14:13;;;;;;;1.57;1.40;;;;;;;9.05;100.00;100386.41;4915724;29;20577;-76
2024/01/22 08:16:39;;;;;;;1.73;1.00;;;;;;;9.20;100.00;100393.28;4930050;29;20220;-77
2024/01/22 08:19:04;;;;;;;2.27;1.20;;;;;;;9.29;100.00;100387.25;4928575;29;20221;-77
2024/01/22 08:21:29;;;;;;;1.87;0.90;;;;;;;9.34;100.00;100387.22;4913020;29;20617;-76
2024/01/22 08:23:55;;;;;;;1.27;0.93;;;;;;;9.41;100.00;100378.59;4913446;29;20219;-77
2024/01/22 08:26:20;;;;;;;2.20;0.93;;;;;;;9.51;100.00;100376.84;4908788;29;20594;-76
2024/01/22 08:28:45;;;;;;;1.10;0.87;;;;;;;9.57;100.00;100392.34;4927143;29;20581;-77
2024/01/22 08:31:11;;;;;;;1.20;0.77;;;;;;;9.65;100.00;100381.97;4928608;29;20251;-78
2024/01/22 08:33:37;;;;;;;2.10;1.10;;;;;;;9.75;100.00;100405.19;4910611;29;20196;-77
2024/01/22 08:36:02;;;;;;;1.60;1.20;;;;;;;9.85;100.00;100380.16;4925710;29;20220;-76
2024/01/22 08:38:27;;;;;;;1.57;1.00;;;;;;;9.82;100.00;100395.69;4929243;29;20210;-77
2024/01/22 08:40:53;;;;;;;1.43;0.80;;;;;;;9.90;100.00;100390.50;4926877;29;20226;-76
2024/01/22 08:43:18;;;;;;;0.83;0.70;;;;;;;9.93;100.00;100393.03;4925248;29;20283;-77
2024/01/22 08:45:43;;;;;;;1.87;0.93;;;;;;;9.90;100.00;100406.84;4927812;29;20288;-77
2024/01/22 08:48:09;;;;;;;1.77;1.00;;;;;;;10.06;100.00;100406.78;4928920;29;20283;-77
2024/01/22 08:50:34;;;;;;;1.27;0.70;;;;;;;10.02;100.00;100405.94;4926964;29;20202;-77
2024/01/22 08:52:59;;;;;;;0.97;0.83;;;;;;;10.17;100.00;100417.91;4912084;29;20199;-76
2024/01/22 08:55:25;;;;;;;1.60;0.93;;;;;;;10.10;100.00;100410.19;4929284;29;20227;-77
2024/01/22 08:57:53;;;;;;;2.73;1.13;;;;;;;9.95;100.00;100406.81;4915621;29;20800;-77
2024/01/22 09:00:20;;;;;;;1.80;1.20;;;;;;;10.02;100.00;100399.91;4924457;29;20209;-77
2024/01/22 09:02:45;;;;;;;1.37;0.90;;;;;;;9.89;100.00;100399.97;4927985;29;20202;-77
2024/01/22 09:05:11;;;;;;;1.83;1.00;;;;;;;9.73;100.00;100385.38;4924833;29;20614;-76
2024/01/22 09:07:37;;;;;;;0.97;0.90;;;;;;;9.64;100.00;100390.59;4926148;29;20285;-78
2024/01/22 09:10:07;;;;;;;2.60;1.10;;;;;;;9.70;100.00;100387.97;4928423;29;20196;-76
2024/01/22 09:12:36;;;;;;;1.50;0.77;;;;;;;9.68;100.00;100390.56;4927817;29;20213;-77
2024/01/22 09:15:05;;;;;;;1.50;0.90;;;;;;;9.70;100.00;100393.13;4929433;29;20225;-77
2024/01/22 09:17:31;;;;;;;0.90;0.80;;;;;;;9.75;100.00;100373.31;4912538;29;20320;-76
2024/01/22 09:19:57;;;;;;;2.83;1.47;;;;;;;9.64;100.00;100380.25;4928921;29;21243;-78
2024/01/22 09:22:23;;;;;;;1.23;1.00;;;;;;;9.61;100.00;100371.66;4927919;29;20228;-77
2024/01/22 09:24:49;;;;;;;1.63;1.00;;;;;;;9.68;100.00;100369.06;4926015;29;20193;-76
2024/01/22 09:27:14;;;;;;;1.90;1.03;;;;;;;9.64;100.00;100362.16;4911793;29;20209;-76
2024/01/22 09:29:41;;;;;;;1.30;0.90;;;;;;;9.60;100.00;100346.66;4929457;29;20267;-77
2024/01/22 09:32:09;;;;;;;1.47;1.00;;;;;;;9.68;100.00;100364.72;4928385;29;20188;-76
2024/01/22 09:34:38;;;;;;;2.13;1.07;;;;;;;9.61;100.00;100358.72;4927713;29;20198;-76
2024/01/22 09:37:04;;;;;;;2.07;1.00;;;;;;;9.68;100.00;100367.31;4925355;29;20221;-77
2024/01/22 09:39:30;;;;;;;1.13;0.80;;;;;;;9.67;100.00;100359.59;4928982;29;20196;-76
2024/01/22 09:41:57;;;;;;;1.80;0.90;;;;;;;9.64;100.00;100359.59;4904110;29;20674;-76
2024/01/22 09:44:23;;;;;;;1.97;0.93;;;;;;;9.65;100.00;100349.22;4928919;29;20191;-76
2024/01/22 09:46:49;;;;;;;1.73;1.20;;;;;;;9.71;100.00;100338.00;4928338;29;20219;-76
2024/01/22 09:49:14;;;;;;;2.43;0.93;;;;;;;9.71;100.00;100333.72;4909570;29;20194;-76
2024/01/22 09:51:42;;;;;;;1.43;0.93;;;;;;;9.80;100.00;100326.75;4927742;29;20910;-76
2024/01/22 09:54:11;;;;;;;0.97;0.80;;;;;;;9.91;100.00;100325.84;4916342;29;20199;-78
2024/01/22 09:56:38;;;;;;;1.20;0.60;;;;;;;10.01;100.00;100311.16;4932719;29;20291;-77
2024/01/22 09:59:19;;;;;;;0.93;0.83;;;;;;;10.14;100.00;100311.91;4915900;29;20562;-77
2024/01/22 10:01:48;;;;;;;1.00;0.90;;;;;;;10.28;100.00;100309.22;4928984;29;20193;-77
2024/01/22 10:04:15;;;;;;;2.07;1.20;;;;;;;10.32;100.00;100312.66;4930867;29;20232;-77
2024/01/22 10:06:40;;;;;;;0.90;0.87;;;;;;;10.40;100.00;100312.63;4931808;29;20290;-77
2024/01/22 10:09:06;;;;;;;2.13;1.20;;;;;;;10.49;100.00;100315.16;4930567;29;20236;-78
2024/01/22 10:11:32;;;;;;;1.10;0.80;;;;;;;10.52;100.00;100322.88;4926480;29;20196;-76
2024/01/22 10:13:57;;;;;;;1.57;0.93;;;;;;;10.61;100.00;100307.28;4931407;29;20208;-76
2024/01/22 10:16:28;;;;;;;1.90;0.83;;;;;;;10.67;100.00;100317.56;4931686;29;20299;-77
2024/01/22 10:19:00;;;;;;;0.73;0.70;;;;;;;10.86;100.00;100316.56;4913715;29;20212;-77
2024/01/22 10:21:26;;;;;;;2.03;1.00;;;;;;;10.98;100.00;100316.44;4931423;29;20919;-76
2024/01/22 10:23:56;;;;;;;0.80;0.80;;;;;;;11.26;100.00;100316.13;4928375;29;20655;-77
2024/01/22 10:26:22;;;;;;;1.13;0.90;;;;;;;11.49;100.00;100305.47;4929052;29;20211;-76
2024/01/22 10:28:47;;;;;;;2.33;0.93;;;;;;;11.64;100.00;100308.75;4932383;29;20689;-76
2024/01/22 10:31:13;;;;;;;1.63;0.73;;;;;;;11.69;100.00;100322.53;4927912;29;20191;-76
2024/01/22 10:33:38;;;;;;;1.53;0.90;;;;;;;11.78;100.00;100329.34;4925033;29;20264;-76
2024/01/22 10:36:15;;;;;;;2.77;0.93;;;;;;;11.43;100.00;100319.38;4931297;29;22149;-77
2024/01/22 10:38:41;;;;;;;2.13;0.97;;;;;;;11.74;100.00;100316.41;4932513;29;20194;-77
2024/01/22 10:41:22;;;;;;;1.10;1.00;;;;;;;11.59;100.00;100320.03;4932957;29;20248;-76
2024/01/22 10:43:49;;;;;;;1.63;0.90;;;;;;;11.65;100.00;100303.53;4928952;29;20896;-76
2024/01/22 10:46:15;;;;;;;1.63;0.97;;;;;;;11.36;100.00;100304.78;4909270;29;20782;-76
2024/01/22 10:48:42;;;;;;;0.53;0.50;;;;;;;11.31;100.00;100284.97;4928148;29;20200;-76
2024/01/22 10:51:07;;;;;;;1.70;0.90;;;;;;;11.17;100.00;100279.97;4935316;29;20198;-77
2024/01/22 10:53:34;;;;;;;1.13;0.97;;;;;;;11.01;100.00;100274.09;4939099;29;20189;-76
2024/01/22 10:55:59;;;;;;;1.53;1.10;;;;;;;10.93;100.00;100271.59;4930102;29;20209;-77
2024/01/22 10:58:27;;;;;;;1.10;1.00;;;;;;;10.95;100.00;100256.91;4931091;29;20688;-76
2024/01/22 11:00:58;;;;;;;1.30;0.80;;;;;;;10.91;100.00;100250.03;4928030;29;20198;-76
2024/01/22 11:03:27;;;;;;;1.40;0.93;;;;;;;10.89;100.00;100265.59;4926181;29;20205;-78
2024/01/22 11:05:57;;;;;;;1.43;1.10;;;;;;;11.01;100.00;100249.06;4946655;29;20199;-77
2024/01/22 11:08:26;;;;;;;1.40;0.90;;;;;;;10.98;100.00;100255.13;4941057;29;20223;-75
2024/01/22 11:10:55;;;;;;;1.27;0.80;;;;;;;10.94;100.00;100252.59;4930717;29;20201;-75
2024/01/22 11:13:20;;;;;;;1.20;0.90;;;;;;;10.92;100.00;100255.22;4934398;29;20285;-77
2024/01/22 11:15:46;;;;;;;1.27;0.83;;;;;;;11.03;100.00;100242.16;4913851;29;20672;-75
2024/01/22 11:18:12;;;;;;;1.30;0.90;;;;;;;10.87;100.00;100240.59;4928199;29;20211;-77
2024/01/22 11:20:38;;;;;;;1.30;1.00;;;;;;;10.87;100.00;100243.19;4926318;29;20230;-76